createdAt,value
2023-05-10T00:01:54.461Z,13.10
2023-05-10T00:04:23.394Z,13.10
2023-05-10T00:06:52.045Z,13.10
2023-05-10T00:09:21.132Z,13.10
2023-05-10T00:11:50.514Z,13.20
2023-05-10T00:14:20.718Z,13.20
2023-05-10T00:16:48.994Z,13.20
2023-05-10T00:19:17.583Z,13.10
2023-05-10T00:21:45.946Z,13.10
2023-05-10T00:24:14.766Z,13.10
2023-05-10T00:26:43.399Z,13.20
2023-05-10T00:29:11.495Z,13.20
2023-05-10T00:31:41.937Z,13.20
2023-05-10T00:34:12.005Z,13.20
2023-05-10T00:36:41.184Z,13.10
2023-05-10T00:39:09.836Z,13.10
2023-05-10T00:41:38.209Z,13.10
2023-05-10T00:44:09.447Z,13.00
2023-05-10T00:46:38.196Z,13.00
2023-05-10T00:49:08.824Z,13.00
2023-05-10T00:51:37.690Z,13.00
2023-05-10T00:54:07.650Z,13.00
2023-05-10T00:56:36.785Z,13.00
2023-05-10T00:59:06.602Z,13.00
2023-05-10T01:01:34.816Z,13.00
2023-05-10T01:04:04.262Z,13.00
2023-05-10T01:06:34.679Z,13.00
2023-05-10T01:09:03.933Z,13.10
2023-05-10T01:11:32.318Z,13.20
2023-05-10T01:14:01.583Z,13.20
2023-05-10T01:16:34.505Z,13.30
2023-05-10T01:19:03.951Z,13.30
2023-05-10T01:21:45.730Z,13.30
2023-05-10T01:24:51.399Z,13.30
2023-05-10T01:27:32.784Z,13.30
2023-05-10T01:30:37.962Z,13.20
2023-05-10T01:33:18.289Z,13.20
2023-05-10T01:35:55.070Z,13.20
2023-05-10T01:38:33.329Z,13.20
2023-05-10T01:41:15.190Z,13.20
2023-05-10T01:43:52.953Z,13.20
2023-05-10T01:46:28.997Z,13.20
2023-05-10T01:49:07.309Z,13.20
2023-05-10T01:51:42.077Z,13.20
2023-05-10T01:54:16.409Z,13.20
2023-05-10T01:56:50.151Z,13.20
2023-05-10T01:59:21.955Z,13.20
2023-05-10T02:01:54.330Z,13.20
2023-05-10T02:04:26.260Z,13.20
2023-05-10T02:06:56.725Z,13.10
2023-05-10T02:09:30.959Z,13.20
2023-05-10T02:12:02.074Z,13.10
2023-05-10T02:14:32.758Z,13.20
2023-05-10T02:17:04.907Z,13.20
2023-05-10T02:19:40.229Z,13.10
2023-05-10T02:22:10.317Z,13.10
2023-05-10T02:24:42.730Z,13.10
2023-05-10T02:27:13.835Z,13.10
2023-05-10T02:29:45.530Z,13.20
2023-05-10T02:32:21.767Z,13.20
2023-05-10T02:34:55.269Z,13.10
2023-05-10T02:37:24.685Z,13.10
2023-05-10T02:39:57.326Z,13.10
2023-05-10T02:42:30.355Z,13.00
2023-05-10T02:45:04.077Z,13.00
2023-05-10T02:47:32.354Z,13.00
2023-05-10T02:50:03.891Z,13.00
2023-05-10T02:52:42.421Z,13.00
2023-05-10T02:55:15.213Z,13.00
2023-05-10T02:57:49.566Z,13.00
2023-05-10T03:00:18.529Z,13.00
2023-05-10T03:02:49.397Z,13.00
2023-05-10T03:05:21.078Z,13.00
2023-05-10T03:07:52.853Z,12.90
2023-05-10T03:10:23.951Z,12.90
2023-05-10T03:13:08.464Z,12.90
2023-05-10T03:15:49.244Z,12.90
2023-05-10T03:18:24.195Z,12.90
2023-05-10T03:20:59.921Z,12.90
2023-05-10T03:23:32.610Z,12.90
2023-05-10T03:26:03.308Z,13.00
2023-05-10T03:28:35.058Z,12.90
2023-05-10T03:31:10.023Z,13.00
2023-05-10T03:33:49.631Z,13.00
2023-05-10T03:36:26.302Z,13.00
2023-05-10T03:38:56.210Z,13.10
2023-05-10T03:41:26.784Z,13.10
2023-05-10T03:43:56.895Z,13.20
2023-05-10T03:46:29.264Z,13.20
2023-05-10T03:48:58.228Z,13.20
2023-05-10T03:51:29.581Z,13.20
2023-05-10T03:53:58.257Z,13.20
2023-05-10T03:56:27.759Z,13.10
2023-05-10T03:58:57.211Z,13.10
2023-05-10T04:01:29.901Z,13.00
2023-05-10T04:04:19.564Z,13.00
2023-05-10T04:06:53.662Z,13.00
2023-05-10T04:09:22.407Z,13.00
2023-05-10T04:11:53.814Z,13.00
2023-05-10T04:14:22.146Z,13.10
2023-05-10T04:16:52.387Z,13.00
2023-05-10T04:19:21.211Z,13.10
2023-05-10T04:21:50.414Z,13.10
2023-05-10T04:24:20.487Z,13.10
2023-05-10T04:26:51.251Z,13.10
2023-05-10T04:29:19.838Z,13.10
2023-05-10T04:31:50.234Z,13.10
2023-05-10T04:34:19.281Z,13.20
2023-05-10T04:36:48.355Z,13.20
2023-05-10T04:39:16.995Z,13.20
2023-05-10T04:41:47.846Z,13.20
2023-05-10T04:44:16.656Z,13.20
2023-05-10T04:46:45.403Z,13.30
2023-05-10T04:49:18.997Z,13.30
2023-05-10T04:51:47.841Z,13.30
2023-05-10T04:54:16.452Z,13.40
2023-05-10T04:56:46.849Z,13.40
2023-05-10T04:59:15.485Z,13.40
2023-05-10T05:01:45.482Z,13.40
2023-05-10T05:04:18.500Z,13.50
2023-05-10T05:06:47.806Z,13.50
2023-05-10T05:09:17.816Z,13.60
2023-05-10T05:11:51.463Z,13.50
2023-05-10T05:14:21.817Z,13.50
2023-05-10T05:16:50.894Z,13.40
2023-05-10T05:19:19.699Z,13.30
2023-05-10T05:21:48.258Z,13.30
2023-05-10T05:24:17.055Z,13.30
2023-05-10T05:26:46.053Z,13.40
2023-05-10T05:29:23.566Z,13.40
2023-05-10T05:31:55.494Z,13.50
2023-05-10T05:34:26.195Z,13.60
2023-05-10T05:36:55.512Z,13.60
2023-05-10T05:39:24.479Z,13.60
2023-05-10T05:41:52.799Z,13.70
2023-05-10T05:44:23.166Z,13.70
2023-05-10T05:46:51.918Z,13.80
2023-05-10T05:49:20.377Z,13.90
2023-05-10T05:51:50.579Z,13.90
2023-05-10T05:54:19.635Z,14.00
2023-05-10T05:56:49.349Z,14.10
2023-05-10T05:59:18.184Z,14.30
2023-05-10T06:01:48.973Z,14.50
2023-05-10T06:04:17.798Z,14.80
2023-05-10T06:06:46.291Z,15.20
2023-05-10T06:09:15.058Z,15.30
2023-05-10T06:11:43.814Z,15.40
2023-05-10T06:14:13.065Z,15.50
2023-05-10T06:16:42.175Z,15.40
2023-05-10T06:19:12.549Z,15.50
2023-05-10T06:21:42.371Z,15.40
2023-05-10T06:24:11.224Z,15.40
2023-05-10T06:26:42.609Z,15.30
2023-05-10T06:29:11.104Z,15.50
2023-05-10T06:31:40.439Z,15.80
2023-05-10T06:34:10.729Z,15.90
2023-05-10T06:36:40.711Z,16.20
2023-05-10T06:39:09.267Z,16.30
2023-05-10T06:41:38.518Z,16.60
2023-05-10T06:44:07.461Z,16.50
2023-05-10T06:46:36.425Z,16.30
2023-05-10T06:49:05.664Z,16.20
2023-05-10T06:51:35.155Z,16.10
2023-05-10T06:54:06.435Z,15.90
2023-05-10T06:56:36.067Z,15.80
2023-05-10T06:59:06.097Z,15.70
2023-05-10T07:01:34.758Z,15.90
2023-05-10T07:04:03.674Z,15.90
2023-05-10T07:06:33.689Z,16.00
2023-05-10T07:09:02.806Z,16.10
2023-05-10T07:11:33.056Z,16.10
2023-05-10T07:14:02.405Z,16.10
2023-05-10T07:16:31.079Z,16.40
2023-05-10T07:18:59.657Z,16.60
2023-05-10T07:21:29.994Z,16.60
2023-05-10T07:23:59.187Z,16.60
2023-05-10T07:26:27.434Z,16.60
2023-05-10T07:28:58.043Z,16.80
2023-05-10T07:31:26.797Z,17.00
2023-05-10T07:33:56.610Z,17.20
2023-05-10T07:36:25.362Z,17.40
2023-05-10T07:38:54.005Z,17.40
2023-05-10T07:41:24.076Z,17.50
2023-05-10T07:43:53.402Z,17.30
2023-05-10T07:46:24.218Z,17.30
2023-05-10T07:48:53.111Z,17.60
2023-05-10T07:51:22.467Z,18.40
2023-05-10T07:53:50.824Z,19.00
2023-05-10T07:56:24.856Z,18.80
2023-05-10T07:58:53.803Z,19.30
2023-05-10T08:01:24.283Z,19.20
2023-05-10T08:03:54.587Z,18.70
2023-05-10T08:06:24.301Z,18.40
2023-05-10T08:08:54.624Z,18.10
2023-05-10T08:11:23.341Z,18.00
2023-05-10T08:13:53.624Z,18.10
2023-05-10T08:16:24.544Z,18.20
2023-05-10T08:18:56.462Z,18.10
2023-05-10T08:21:25.177Z,18.20
2023-05-10T08:23:53.506Z,18.10
2023-05-10T08:26:22.805Z,18.00
2023-05-10T08:28:51.267Z,17.90
2023-05-10T08:31:20.248Z,17.60
2023-05-10T08:33:52.536Z,17.30
2023-05-10T08:36:23.171Z,17.00
2023-05-10T08:38:53.136Z,16.50
2023-05-10T08:41:23.075Z,16.30
2023-05-10T08:43:53.194Z,16.00
2023-05-10T08:46:23.093Z,16.00
2023-05-10T08:48:54.168Z,16.10
2023-05-10T08:51:27.867Z,16.10
2023-05-10T08:53:57.212Z,16.50
2023-05-10T08:56:26.516Z,16.70
2023-05-10T08:58:56.025Z,17.10
2023-05-10T09:01:25.714Z,17.30
2023-05-10T09:03:58.628Z,17.30
2023-05-10T09:06:27.865Z,17.30
2023-05-10T09:08:56.858Z,17.30
2023-05-10T09:11:26.314Z,17.00
2023-05-10T09:13:55.448Z,16.70
2023-05-10T09:16:24.731Z,16.50
2023-05-10T09:18:55.716Z,16.50
2023-05-10T09:21:26.318Z,16.40
2023-05-10T09:23:56.793Z,16.40
2023-05-10T09:26:26.255Z,16.60
2023-05-10T09:28:57.114Z,17.00
2023-05-10T09:31:26.486Z,17.00
2023-05-10T09:33:56.329Z,17.40
2023-05-10T09:36:26.328Z,17.80
2023-05-10T09:38:55.884Z,18.00
2023-05-10T09:41:28.391Z,18.10
2023-05-10T09:44:01.912Z,18.00
2023-05-10T09:46:30.671Z,17.60
2023-05-10T09:49:00.366Z,17.50
2023-05-10T09:51:31.632Z,17.00
2023-05-10T09:54:19.072Z,16.50
2023-05-10T09:56:47.896Z,16.20
2023-05-10T09:59:18.578Z,16.00
2023-05-10T10:01:52.738Z,15.80
2023-05-10T10:04:22.709Z,15.60
2023-05-10T10:07:07.094Z,15.40
2023-05-10T10:09:37.049Z,15.30
2023-05-10T10:12:07.671Z,15.50
2023-05-10T10:14:52.325Z,15.80
2023-05-10T10:17:25.485Z,16.30
2023-05-10T10:19:58.787Z,16.90
2023-05-10T10:22:29.738Z,17.50
2023-05-10T10:25:02.591Z,18.10
2023-05-10T10:27:43.234Z,18.70
2023-05-10T10:30:32.712Z,19.60
2023-05-10T10:33:29.201Z,19.80
2023-05-10T10:36:19.745Z,19.40
2023-05-10T10:39:04.433Z,19.40
2023-05-10T10:41:35.270Z,19.50
2023-05-10T10:44:43.585Z,19.70
2023-05-10T10:47:34.136Z,19.50
2023-05-10T10:50:07.660Z,19.00
2023-05-10T10:52:37.484Z,18.40
2023-05-10T10:55:13.939Z,17.90
2023-05-10T10:57:47.705Z,17.20
2023-05-10T11:00:28.847Z,16.80
2023-05-10T11:03:01.128Z,16.20
2023-05-10T11:05:50.560Z,15.80
2023-05-10T11:08:24.578Z,15.30
2023-05-10T11:11:09.767Z,15.10
2023-05-10T11:13:42.648Z,15.10
2023-05-10T11:16:17.785Z,15.30
2023-05-10T11:18:59.677Z,15.40
2023-05-10T11:21:28.529Z,15.60
2023-05-10T11:23:59.123Z,15.70
2023-05-10T11:26:35.600Z,15.80
2023-05-10T11:29:06.014Z,15.80
2023-05-10T11:31:34.878Z,15.90
2023-05-10T11:34:04.011Z,16.10
2023-05-10T11:36:38.422Z,16.40
2023-05-10T11:39:08.047Z,17.00
2023-05-10T11:41:38.181Z,17.70
2023-05-10T11:44:06.767Z,18.10
2023-05-10T11:46:35.146Z,18.50
2023-05-10T11:49:05.864Z,19.00
2023-05-10T11:51:37.729Z,19.80
2023-05-10T11:54:10.724Z,20.60
2023-05-10T11:56:41.631Z,20.90
2023-05-10T11:59:10.490Z,21.10
2023-05-10T12:01:39.544Z,21.50
2023-05-10T12:04:08.544Z,21.70
2023-05-10T12:06:42.637Z,21.90
2023-05-10T12:09:11.347Z,21.50
2023-05-10T12:11:44.567Z,21.50
2023-05-10T12:14:16.745Z,21.40
2023-05-10T12:16:46.008Z,21.20
2023-05-10T12:19:14.727Z,21.70
2023-05-10T12:21:44.292Z,22.50
2023-05-10T12:24:13.393Z,23.00
2023-05-10T12:26:44.580Z,23.70
2023-05-10T12:29:19.447Z,24.00
2023-05-10T12:31:53.204Z,24.30
2023-05-10T12:34:33.776Z,24.30
2023-05-10T12:37:02.901Z,23.40
2023-05-10T12:39:42.371Z,22.90
2023-05-10T12:42:12.583Z,22.40
2023-05-10T12:44:41.701Z,22.50
2023-05-10T12:47:10.878Z,23.00
2023-05-10T12:49:39.105Z,23.70
2023-05-10T12:52:07.940Z,24.40
2023-05-10T12:54:39.293Z,24.70
2023-05-10T12:57:07.864Z,25.60
2023-05-10T12:59:40.258Z,25.80
2023-05-10T13:02:09.057Z,25.10
2023-05-10T13:04:40.645Z,24.10
2023-05-10T13:07:09.604Z,23.60
2023-05-10T13:09:37.996Z,23.50
2023-05-10T13:12:08.744Z,23.50
2023-05-10T13:14:41.659Z,23.50
2023-05-10T13:17:11.403Z,23.40
2023-05-10T13:19:40.589Z,23.10
2023-05-10T13:22:09.080Z,23.20
2023-05-10T13:24:37.746Z,23.40
2023-05-10T13:27:06.507Z,23.60
2023-05-10T13:29:36.052Z,23.50
2023-05-10T13:32:07.394Z,23.50
2023-05-10T13:34:39.031Z,23.20
2023-05-10T13:37:07.549Z,23.00
2023-05-10T13:39:36.060Z,22.80
2023-05-10T13:42:04.621Z,22.60
2023-05-10T13:44:34.962Z,22.50
2023-05-10T13:47:03.715Z,22.60
2023-05-10T13:49:37.695Z,22.80
2023-05-10T13:52:07.956Z,23.10
2023-05-10T13:54:36.936Z,23.60
2023-05-10T13:57:05.638Z,23.90
2023-05-10T13:59:35.284Z,24.00
2023-05-10T14:02:04.262Z,24.20
2023-05-10T14:04:35.478Z,23.90
2023-05-10T14:07:04.646Z,23.70
2023-05-10T14:09:34.194Z,23.50
2023-05-10T14:12:03.516Z,23.50
2023-05-10T14:14:32.482Z,23.50
2023-05-10T14:17:01.173Z,23.40
2023-05-10T14:19:31.853Z,23.30
2023-05-10T14:22:02.459Z,23.20
2023-05-10T14:24:31.308Z,22.80
2023-05-10T14:27:00.148Z,22.60
2023-05-10T14:29:28.860Z,22.30
2023-05-10T14:31:57.524Z,21.80
2023-05-10T14:34:26.016Z,21.60
2023-05-10T14:36:54.141Z,21.70
2023-05-10T14:39:24.582Z,21.60
2023-05-10T14:41:53.768Z,21.60
2023-05-10T14:44:23.048Z,21.30
2023-05-10T14:46:51.662Z,20.90
2023-05-10T14:49:20.623Z,20.80
2023-05-10T14:51:49.780Z,20.70
2023-05-10T14:54:18.918Z,20.50
2023-05-10T14:56:50.801Z,20.50
2023-05-10T14:59:21.644Z,20.70
2023-05-10T15:01:50.354Z,21.20
2023-05-10T15:04:19.400Z,21.60
2023-05-10T15:06:48.967Z,21.70
2023-05-10T15:09:18.617Z,21.60
2023-05-10T15:11:51.766Z,21.30
2023-05-10T15:14:20.474Z,21.20
2023-05-10T15:16:48.881Z,20.90
2023-05-10T15:19:17.662Z,20.80
2023-05-10T15:21:46.819Z,20.80
2023-05-10T15:24:15.837Z,20.90
2023-05-10T15:26:44.813Z,21.20
2023-05-10T15:29:20.833Z,21.30
2023-05-10T15:31:52.694Z,21.30
2023-05-10T15:34:21.826Z,21.10
2023-05-10T15:36:50.660Z,21.10
2023-05-10T15:39:19.712Z,21.00
2023-05-10T15:41:50.388Z,20.50
2023-05-10T15:44:20.654Z,20.10
2023-05-10T15:46:49.477Z,19.90
2023-05-10T15:49:19.542Z,19.80
2023-05-10T15:51:48.587Z,19.90
2023-05-10T15:54:18.748Z,20.00
2023-05-10T15:56:49.575Z,20.10
2023-05-10T15:59:20.273Z,20.00
2023-05-10T16:01:48.656Z,19.80
2023-05-10T16:04:18.713Z,19.70
2023-05-10T16:06:47.822Z,19.70
2023-05-10T16:09:16.897Z,19.60
2023-05-10T16:11:46.009Z,19.50
2023-05-10T16:14:16.388Z,19.50
2023-05-10T16:16:46.323Z,19.70
2023-05-10T16:19:15.209Z,19.90
2023-05-10T16:21:43.725Z,19.80
2023-05-10T16:24:13.083Z,19.60
2023-05-10T16:26:41.649Z,19.50
2023-05-10T16:29:10.804Z,19.60
2023-05-10T16:31:39.343Z,19.90
2023-05-10T16:34:09.558Z,20.20
2023-05-10T16:36:37.719Z,20.50
2023-05-10T16:39:07.157Z,20.70
2023-05-10T16:41:36.145Z,20.70
2023-05-10T16:44:05.150Z,20.70
2023-05-10T16:46:34.611Z,20.50
2023-05-10T16:49:03.165Z,20.50
2023-05-10T16:51:33.174Z,20.40
2023-05-10T16:54:01.451Z,20.30
2023-05-10T16:56:30.286Z,20.30
2023-05-10T16:58:59.062Z,20.30
2023-05-10T17:01:28.657Z,20.30
2023-05-10T17:03:57.029Z,20.20
2023-05-10T17:06:25.916Z,20.00
2023-05-10T17:08:57.523Z,19.70
2023-05-10T17:11:26.226Z,19.60
2023-05-10T17:13:55.282Z,19.50
2023-05-10T17:16:23.987Z,19.40
2023-05-10T17:18:56.133Z,19.40
2023-05-10T17:21:24.777Z,19.20
2023-05-10T17:23:53.420Z,19.00
2023-05-10T17:26:25.037Z,18.90
2023-05-10T17:28:55.127Z,18.70
2023-05-10T17:31:23.769Z,18.50
2023-05-10T17:33:52.112Z,18.30
2023-05-10T17:36:20.485Z,18.10
2023-05-10T17:38:49.073Z,18.00
2023-05-10T17:41:17.636Z,17.80
2023-05-10T17:43:48.419Z,17.80
2023-05-10T17:46:17.248Z,17.70
2023-05-10T17:48:46.122Z,17.60
2023-05-10T17:51:15.756Z,17.50
2023-05-10T17:53:44.691Z,17.40
2023-05-10T17:56:16.204Z,17.30
2023-05-10T17:58:44.686Z,17.20
2023-05-10T18:01:14.585Z,17.10
2023-05-10T18:03:43.537Z,17.00
2023-05-10T18:06:12.674Z,16.90
2023-05-10T18:08:41.268Z,16.90
2023-05-10T18:11:10.090Z,16.90
2023-05-10T18:13:38.577Z,16.90
2023-05-10T18:16:08.926Z,16.90
2023-05-10T18:18:41.027Z,16.80
2023-05-10T18:21:10.324Z,16.70
2023-05-10T18:23:38.926Z,16.60
2023-05-10T18:26:08.665Z,16.50
2023-05-10T18:28:38.142Z,16.40
2023-05-10T18:31:09.022Z,16.30
2023-05-10T18:33:39.666Z,16.20
2023-05-10T18:36:08.936Z,16.10
2023-05-10T18:38:38.223Z,16.00
2023-05-10T18:41:12.695Z,16.00
2023-05-10T18:43:43.173Z,16.00
2023-05-10T18:46:13.021Z,15.90
2023-05-10T18:48:44.778Z,15.70
2023-05-10T18:51:18.105Z,15.60
2023-05-10T18:53:47.412Z,15.50
2023-05-10T18:56:16.728Z,15.50
2023-05-10T18:58:45.554Z,15.40
2023-05-10T19:01:14.346Z,15.40
2023-05-10T19:03:46.327Z,15.40
2023-05-10T19:06:14.652Z,15.30
2023-05-10T19:08:43.537Z,15.20
2023-05-10T19:11:12.127Z,15.10
2023-05-10T19:13:43.376Z,14.90
2023-05-10T19:16:20.367Z,14.70
2023-05-10T19:18:51.309Z,14.60
2023-05-10T19:21:23.683Z,14.60
2023-05-10T19:23:54.295Z,14.40
2023-05-10T19:26:23.599Z,14.40
2023-05-10T19:28:52.989Z,14.30
2023-05-10T19:31:22.076Z,14.20
2023-05-10T19:33:53.061Z,14.10
2023-05-10T19:36:23.072Z,14.00
2023-05-10T19:38:53.873Z,14.00
2023-05-10T19:41:22.805Z,13.90
2023-05-10T19:43:52.084Z,13.90
2023-05-10T19:46:21.338Z,13.90
2023-05-10T19:48:51.109Z,13.90
2023-05-10T19:51:20.557Z,13.90
2023-05-10T19:53:49.384Z,13.80
2023-05-10T19:56:18.437Z,13.80
2023-05-10T19:58:47.231Z,13.70
2023-05-10T20:01:16.536Z,13.60
2023-05-10T20:03:45.799Z,13.50
2023-05-10T20:06:16.652Z,13.50
2023-05-10T20:08:45.175Z,13.50
2023-05-10T20:11:13.576Z,13.50
2023-05-10T20:13:43.597Z,13.60
2023-05-10T20:16:12.436Z,13.50
2023-05-10T20:18:41.739Z,13.50
2023-05-10T20:21:10.559Z,13.50
2023-05-10T20:23:40.575Z,13.50
2023-05-10T20:26:12.518Z,13.50
2023-05-10T20:28:41.936Z,13.40
2023-05-10T20:31:14.297Z,13.40
2023-05-10T20:33:43.166Z,13.30
2023-05-10T20:36:11.776Z,13.30
2023-05-10T20:38:42.918Z,13.30
2023-05-10T20:41:12.044Z,13.20
2023-05-10T20:43:41.687Z,13.20
2023-05-10T20:46:10.199Z,13.20
2023-05-10T20:48:38.788Z,13.20
2023-05-10T20:51:13.413Z,13.10
2023-05-10T20:53:43.256Z,13.10
2023-05-10T20:56:13.177Z,13.00
2023-05-10T20:58:41.670Z,13.00
2023-05-10T21:01:20.102Z,13.00
2023-05-10T21:03:50.302Z,12.90
2023-05-10T21:06:18.984Z,12.90
2023-05-10T21:08:49.443Z,12.90
2023-05-10T21:11:19.259Z,12.80
2023-05-10T21:13:48.509Z,12.80
2023-05-10T21:16:17.467Z,12.80
2023-05-10T21:18:47.560Z,12.70
2023-05-10T21:21:16.661Z,12.80
2023-05-10T21:23:50.177Z,12.80
2023-05-10T21:26:21.876Z,12.80
2023-05-10T21:28:50.905Z,12.80
2023-05-10T21:31:20.121Z,12.80
2023-05-10T21:33:49.548Z,12.70
2023-05-10T21:36:18.551Z,12.60
2023-05-10T21:38:50.674Z,12.60
2023-05-10T21:41:19.788Z,12.60
2023-05-10T21:43:49.037Z,12.50
2023-05-10T21:46:17.680Z,12.50
2023-05-10T21:48:52.445Z,12.50
2023-05-10T21:51:22.137Z,12.50
2023-05-10T21:53:51.781Z,12.50
2023-05-10T21:56:20.705Z,12.50
2023-05-10T21:58:49.215Z,12.50
2023-05-10T22:01:25.773Z,12.40
2023-05-10T22:03:54.385Z,12.40
2023-05-10T22:06:23.164Z,12.40
2023-05-10T22:08:53.399Z,12.30
2023-05-10T22:11:21.821Z,12.20
2023-05-10T22:13:51.260Z,12.20
2023-05-10T22:16:20.366Z,12.10
2023-05-10T22:18:50.369Z,12.10
2023-05-10T22:21:19.446Z,12.00
2023-05-10T22:23:47.791Z,11.90
2023-05-10T22:26:18.654Z,11.90
2023-05-10T22:28:47.115Z,11.90
2023-05-10T22:31:15.384Z,11.90
2023-05-10T22:33:44.042Z,11.80
2023-05-10T22:36:12.718Z,11.80
2023-05-10T22:38:41.190Z,11.80
2023-05-10T22:41:09.978Z,11.70
2023-05-10T22:43:40.033Z,11.70
2023-05-10T22:46:08.482Z,11.70
2023-05-10T22:48:37.461Z,11.70
2023-05-10T22:51:06.496Z,11.80
2023-05-10T22:53:34.860Z,11.70
2023-05-10T22:56:04.530Z,11.70
2023-05-10T22:58:33.428Z,11.70
2023-05-10T23:01:03.551Z,11.70
2023-05-10T23:03:32.835Z,11.60
2023-05-10T23:06:02.070Z,11.60
2023-05-10T23:08:30.333Z,11.60
2023-05-10T23:11:16.089Z,11.60
2023-05-10T23:13:46.754Z,11.60
2023-05-10T23:16:29.300Z,11.50
2023-05-10T23:18:57.540Z,11.50
2023-05-10T23:21:26.257Z,11.50
2023-05-10T23:24:01.264Z,11.50
2023-05-10T23:26:31.478Z,11.50
2023-05-10T23:29:03.304Z,11.40
2023-05-10T23:31:35.917Z,11.30
2023-05-10T23:34:06.468Z,11.30
2023-05-10T23:36:35.796Z,11.30
2023-05-10T23:39:06.261Z,11.30
2023-05-10T23:41:37.979Z,11.20
2023-05-10T23:44:07.750Z,11.20
2023-05-10T23:46:40.410Z,11.20
2023-05-10T23:49:12.237Z,11.20
2023-05-10T23:51:54.418Z,11.20
2023-05-10T23:54:28.171Z,11.20
2023-05-10T23:56:57.320Z,11.20
2023-05-10T23:59:25.678Z,11.10
